Time;durP1;ratioP1;P1;durP2;ratioP2;P2;SDS_P1;SDS_P2;PMS_P1;PMS_P2;Temp;Humidity;BMP_temperature;BMP_pressure;BME280_temperature;BME280_humidity;BME280_pressure;Samples;Min_cycle;Max_cycle;Signal;HPM_P1;HPM_P2
2023/06/23 04:12:20;;;;;;;17.17;15.02;;;;;;;25.01;85.15;100390.28;5601188;31;242475;-58
2023/06/23 04:15:24;;;;;;;;;;;;;;;25.01;85.15;100390.28;5584159;32;33386;-59
2023/06/23 04:18:27;;;;;;;16.45;13.23;;;;;;;24.56;87.29;100387.47;5583504;32;34014;-59
2023/06/23 04:21:32;;;;;;;17.65;13.70;;;;;;;24.64;86.95;100387.59;5583908;31;33765;-60
2023/06/23 04:24:38;;;;;;;13.65;11.95;;;;;;;24.71;84.57;100388.44;5598989;31;33082;-58
2023/06/23 04:27:43;;;;;;;15.00;12.65;;;;;;;24.75;85.18;100383.78;5600856;31;33205;-59
2023/06/23 04:30:47;;;;;;;16.20;12.23;;;;;;;24.83;81.57;100379.97;5603207;31;33543;-59
2023/06/23 04:33:49;;;;;;;14.23;11.80;;;;;;;24.84;81.59;100384.25;5602822;31;34270;-59
2023/06/23 04:37:03;;;;;;;14.90;13.13;;;;;;;24.89;82.02;100380.38;5602542;31;34279;-59
2023/06/23 04:40:14;;;;;;;13.77;11.30;;;;;;;24.95;81.75;100384.34;5581714;31;33202;-59
2023/06/23 04:43:31;;;;;;;13.55;11.32;;;;;;;24.99;82.08;100390.66;5580245;31;33609;-59
2023/06/23 04:46:38;;;;;;;13.27;11.85;;;;;;;25.08;81.98;100382.91;5570365;32;33265;-59
2023/06/23 04:49:44;;;;;;;13.65;12.05;;;;;;;25.16;80.84;100383.78;5582766;31;33205;-58
2023/06/23 04:52:51;;;;;;;16.17;11.85;;;;;;;25.21;79.50;100371.69;5583267;32;33729;-59
2023/06/23 04:56:00;;;;;;;13.52;11.18;;;;;;;25.26;79.23;100374.06;5580984;31;33530;-59
2023/06/23 04:59:06;;;;;;;14.13;12.60;;;;;;;25.29;79.58;100367.81;5568785;32;34216;-59
2023/06/23 05:02:11;;;;;;;15.73;12.70;;;;;;;25.36;78.87;100372.56;5583002;32;33584;-59
2023/06/23 05:05:21;;;;;;;15.18;12.60;;;;;;;25.39;77.42;100369.84;5582361;31;34350;-59
2023/06/23 05:08:26;;;;;;;15.77;13.00;;;;;;;25.42;78.31;100368.31;5581842;31;33834;-59
2023/06/23 05:11:31;;;;;;;14.30;12.27;;;;;;;25.45;77.72;100365.59;5581863;32;34247;-62
2023/06/23 05:14:34;;;;;;;15.98;12.77;;;;;;;25.48;77.76;100364.84;5582970;32;34240;-62
2023/06/23 05:17:38;;;;;;;16.45;12.48;;;;;;;25.61;77.65;100353.53;5582778;31;33663;-62
2023/06/23 05:20:43;;;;;;;17.35;12.65;;;;;;;25.70;77.37;100359.50;5582188;31;33402;-62
2023/06/23 05:23:49;;;;;;;17.70;12.00;;;;;;;25.77;75.98;100367.75;5567921;32;33794;-62
2023/06/23 05:26:55;;;;;;;24.83;12.90;;;;;;;25.92;74.11;100369.44;5568498;32;33641;-62
2023/06/23 05:30:01;;;;;;;16.80;13.38;;;;;;;25.96;73.49;100370.25;5568648;32;33653;-62
2023/06/23 05:33:07;;;;;;;17.87;12.63;;;;;;;26.05;73.45;100378.12;5556116;32;33794;-62
2023/06/23 05:36:12;;;;;;;17.37;11.32;;;;;;;26.08;74.37;100380.09;5548993;32;33613;-62
2023/06/23 05:39:17;;;;;;;18.67;12.98;;;;;;;26.15;73.98;100379.34;5556964;32;33988;-62
2023/06/23 05:42:19;;;;;;;14.95;13.40;;;;;;;26.19;75.12;100375.47;5569464;32;33970;-62
2023/06/23 05:45:22;;;;;;;22.87;13.13;;;;;;;26.24;72.59;100371.53;5569239;32;33613;-62
2023/06/23 05:48:42;;;;;;;14.98;12.05;;;;;;;26.25;74.22;100371.16;5566719;32;33608;-62
2023/06/23 05:51:52;;;;;;;17.48;13.07;;;;;;;26.30;72.90;100370.00;5554876;32;33518;-62
2023/06/23 05:54:54;;;;;;;13.57;12.18;;;;;;;26.35;71.77;100368.81;5569269;32;33597;-62
2023/06/23 05:58:02;;;;;;;15.68;11.88;;;;;;;26.38;74.36;100374.34;5569228;32;34210;-62
2023/06/23 06:01:12;;;;;;;17.10;11.63;;;;;;;26.45;74.47;100360.59;5549293;32;34331;-62
2023/06/23 06:04:17;;;;;;;16.73;11.63;;;;;;;26.59;72.67;100365.41;5549923;32;33624;-62
2023/06/23 06:07:20;;;;;;;20.40;13.18;;;;;;;26.69;72.86;100361.09;5550154;32;33761;-62
2023/06/23 06:10:23;;;;;;;16.98;13.00;;;;;;;26.76;72.49;100361.12;5549505;32;33499;-62
2023/06/23 06:13:27;;;;;;;14.15;12.75;;;;;;;26.83;72.39;100354.84;5548777;32;33928;-62
2023/06/23 06:16:31;;;;;;;21.73;12.52;;;;;;;26.91;71.02;100350.91;5564740;32;33719;-62
2023/06/23 06:19:36;;;;;;;17.77;12.98;;;;;;;26.93;71.71;100345.81;5568476;32;34285;-60
2023/06/23 06:22:41;;;;;;;16.48;13.55;;;;;;;26.99;71.33;100335.97;5568791;32;33894;-60
2023/06/23 06:25:46;;;;;;;15.93;12.80;;;;;;;27.06;71.08;100335.97;5567919;32;34262;-59
2023/06/23 06:28:53;;;;;;;18.12;12.45;;;;;;;27.15;70.34;100330.09;5562787;32;34590;-59
2023/06/23 06:31:58;;;;;;;26.75;15.35;;;;;;;27.16;69.41;100335.22;5548727;32;33751;-60
2023/06/23 06:35:05;;;;;;;20.05;13.65;;;;;;;27.16;70.33;100334.44;5548341;32;34360;-59
2023/06/23 06:38:10;;;;;;;17.05;13.52;;;;;;;27.28;71.38;100325.75;5562086;32;33537;-59
2023/06/23 06:41:14;;;;;;;16.33;13.70;;;;;;;27.33;70.66;100325.37;5568457;32;34276;-59
2023/06/23 06:44:17;;;;;;;18.85;13.50;;;;;;;27.36;69.97;100319.06;5569282;32;33435;-59
2023/06/23 06:47:20;;;;;;;23.30;13.82;;;;;;;27.44;70.46;100319.06;5567411;32;33708;-59
2023/06/23 06:50:24;;;;;;;21.15;13.60;;;;;;;27.50;68.83;100317.47;5568329;32;34897;-60
2023/06/23 06:53:27;;;;;;;19.10;13.62;;;;;;;27.60;68.80;100314.69;5567575;32;33572;-59
2023/06/23 06:56:30;;;;;;;19.25;13.00;;;;;;;27.69;69.41;100305.22;5568938;32;33556;-59
2023/06/23 06:59:32;;;;;;;14.90;13.40;;;;;;;27.74;70.05;100313.06;5568457;32;33566;-59
2023/06/23 07:02:37;;;;;;;21.92;14.98;;;;;;;27.73;67.90;100312.28;5568357;32;34219;-59
2023/06/23 07:05:39;;;;;;;16.58;13.93;;;;;;;27.86;68.31;100309.91;5568016;32;33657;-60
2023/06/23 07:08:42;;;;;;;20.20;15.05;;;;;;;27.87;69.05;100309.50;5568483;32;33575;-60
2023/06/23 07:11:49;;;;;;;26.45;15.85;;;;;;;27.92;68.67;100313.84;5568172;32;33761;-59
2023/06/23 07:14:51;;;;;;;16.35;13.93;;;;;;;27.84;68.95;100315.03;5568337;32;33669;-59
2023/06/23 07:17:54;;;;;;;20.15;14.50;;;;;;;27.85;69.70;100300.88;5568092;32;33585;-60
2023/06/23 07:20:58;;;;;;;17.83;14.55;;;;;;;27.94;69.34;100303.19;5568849;32;33648;-60
2023/06/23 07:24:01;;;;;;;16.58;14.82;;;;;;;28.10;68.58;100310.97;5567025;32;33561;-59
2023/06/23 07:27:04;;;;;;;21.48;15.48;;;;;;;28.14;67.22;100305.44;5568386;32;33797;-59
2023/06/23 07:30:07;;;;;;;17.80;15.15;;;;;;;28.19;67.74;100299.53;5568859;32;33087;-59
2023/06/23 07:33:09;;;;;;;20.98;15.90;;;;;;;28.25;67.65;100304.22;5567999;32;34302;-60
2023/06/23 07:36:12;;;;;;;21.08;15.25;;;;;;;28.24;66.77;100301.84;5568052;32;34351;-60
2023/06/23 07:39:14;;;;;;;16.77;14.98;;;;;;;28.34;67.51;100306.50;5567851;32;33694;-59
2023/06/23 07:42:17;;;;;;;19.02;14.75;;;;;;;28.40;67.86;100306.91;5568401;32;33522;-60
2023/06/23 07:45:19;;;;;;;22.08;15.18;;;;;;;28.46;67.17;100311.59;5567569;32;33300;-60
2023/06/23 07:48:21;;;;;;;17.27;15.48;;;;;;;28.48;67.58;100312.00;5563881;32;33318;-60
2023/06/23 07:51:23;;;;;;;23.73;15.57;;;;;;;28.63;66.39;100303.59;5567820;32;34209;-60
2023/06/23 07:54:28;;;;;;;24.77;15.40;;;;;;;28.59;67.30;100300.88;5567680;32;33824;-59
2023/06/23 07:57:30;;;;;;;27.37;16.10;;;;;;;28.61;66.88;100297.69;5567729;32;33677;-60
2023/06/23 08:00:32;;;;;;;19.40;15.77;;;;;;;28.64;67.68;100291.37;5568141;32;33583;-60
2023/06/23 08:03:35;;;;;;;19.05;16.20;;;;;;;28.75;66.75;100297.63;5567522;32;33407;-60
2023/06/23 08:06:38;;;;;;;21.40;15.50;;;;;;;28.78;67.15;100299.56;5566467;32;33277;-59
2023/06/23 08:09:40;;;;;;;20.83;17.05;;;;;;;28.92;65.79;100293.91;5567010;32;33540;-60
2023/06/23 08:12:42;;;;;;;18.77;16.15;;;;;;;28.83;64.99;100290.84;5552505;32;33704;-59
2023/06/23 08:15:46;;;;;;;28.33;17.23;;;;;;;28.95;65.89;100295.09;5548561;32;33645;-59
2023/06/23 08:18:49;;;;;;;18.77;16.10;;;;;;;28.98;65.28;100286.78;5557171;32;34261;-59
2023/06/23 08:21:52;;;;;;;28.90;17.95;;;;;;;29.03;65.54;100285.56;5567625;32;33727;-59
2023/06/23 08:24:54;;;;;;;18.20;16.20;;;;;;;29.01;66.45;100279.69;5567577;32;33624;-60
2023/06/23 08:27:57;;;;;;;26.95;17.77;;;;;;;29.11;64.53;100284.31;5564519;32;34253;-60
2023/06/23 08:30:59;;;;;;;19.83;16.30;;;;;;;29.05;64.76;100297.00;5567561;32;33674;-60
2023/06/23 08:34:03;;;;;;;21.65;15.55;;;;;;;29.12;65.06;100290.63;5565315;32;33574;-59
2023/06/23 08:37:05;;;;;;;22.98;16.55;;;;;;;29.26;64.49;100282.97;5566414;32;34381;-60
2023/06/23 08:40:08;;;;;;;23.90;17.02;;;;;;;29.38;63.27;100281.69;5564768;32;33313;-61
2023/06/23 08:43:11;;;;;;;25.70;16.92;;;;;;;29.34;64.77;100282.88;5561645;32;33610;-61
2023/06/23 08:46:15;;;;;;;23.58;17.23;;;;;;;29.32;64.89;100290.81;5560287;32;33589;-61
2023/06/23 08:49:21;;;;;;;21.10;16.27;;;;;;;29.29;65.46;100280.59;5558350;32;33451;-61
2023/06/23 08:52:24;;;;;;;22.13;16.50;;;;;;;29.26;65.27;100284.94;5566843;32;33236;-61
2023/06/23 08:55:27;;;;;;;25.00;16.80;;;;;;;29.23;64.88;100281.03;5565218;32;33561;-61
2023/06/23 08:58:30;;;;;;;21.92;16.80;;;;;;;29.39;64.67;100286.00;5568954;32;33557;-61
2023/06/23 09:01:33;;;;;;;21.55;16.83;;;;;;;29.39;63.84;100286.00;5569325;32;33605;-61
2023/06/23 09:04:36;;;;;;;23.15;16.83;;;;;;;29.39;64.16;100288.75;5567221;32;33657;-61
2023/06/23 09:07:39;;;;;;;21.55;16.48;;;;;;;29.39;62.39;100277.72;5565952;32;33615;-61
2023/06/23 09:10:42;;;;;;;19.00;16.30;;;;;;;29.37;64.16;100282.06;5567944;32;34253;-61
2023/06/23 09:13:45;;;;;;;21.73;16.70;;;;;;;29.42;64.19;100287.16;5568415;32;33832;-61
2023/06/23 09:16:48;;;;;;;20.30;16.80;;;;;;;29.59;63.72;100283.41;5561924;32;34257;-61
2023/06/23 09:19:52;;;;;;;21.05;17.23;;;;;;;29.57;62.29;100285.81;5561328;32;33684;-61
2023/06/23 09:22:55;;;;;;;25.23;17.60;;;;;;;29.54;63.90;100289.41;5552467;32;33696;-61
2023/06/23 09:25:57;;;;;;;21.75;17.58;;;;;;;29.55;65.16;100295.69;5565446;32;34461;-61
2023/06/23 09:29:21;;;;;;;23.47;17.83;;;;;;;29.63;64.27;100295.22;5566847;32;34581;-61
2023/06/23 09:32:30;;;;;;;19.83;17.48;;;;;;;29.68;64.31;100294.00;5567300;32;33700;-61
2023/06/23 09:35:32;;;;;;;25.27;17.77;;;;;;;29.64;62.56;100287.75;5567959;32;34312;-61
2023/06/23 09:38:36;;;;;;;21.37;18.62;;;;;;;29.62;63.42;100290.91;5567986;32;33720;-61
2023/06/23 09:41:40;;;;;;;20.23;18.02;;;;;;;29.60;62.86;100286.97;5568452;32;33390;-61
2023/06/23 09:44:53;;;;;;;25.80;17.85;;;;;;;29.53;65.53;100282.28;5568790;32;33626;-61
2023/06/23 09:47:56;;;;;;;23.87;18.95;;;;;;;29.62;64.11;100293.66;5567694;32;33725;-61
2023/06/23 09:51:03;;;;;;;22.95;17.30;;;;;;;29.69;64.22;100295.56;5568342;32;33751;-61
2023/06/23 09:54:05;;;;;;;22.77;17.37;;;;;;;29.76;64.44;100297.44;5566547;32;35026;-61
2023/06/23 09:57:18;;;;;;;22.15;17.83;;;;;;;29.79;63.60;100294.63;5555741;32;34371;-62
2023/06/23 10:00:29;;;;;;;24.50;17.62;;;;;;;29.83;62.60;100300.12;5555536;32;33624;-59
2023/06/23 10:03:47;;;;;;;21.65;17.92;;;;;;;29.89;63.38;100306.75;5562452;32;33274;-60
2023/06/23 10:06:49;;;;;;;21.08;16.55;;;;;;;30.00;63.16;100310.19;5568847;32;33703;-59
2023/06/23 10:09:54;;;;;;;22.35;15.88;;;;;;;30.04;62.36;100310.12;5567175;32;34276;-61
2023/06/23 10:13:13;;;;;;;19.30;15.50;;;;;;;30.10;61.87;100300.16;5556161;32;33609;-62
2023/06/23 10:16:16;;;;;;;21.23;16.42;;;;;;;30.11;61.98;100299.75;5565044;32;34087;-61
2023/06/23 10:19:18;;;;;;;20.75;16.87;;;;;;;30.17;62.08;100294.56;5561460;32;34002;-61
2023/06/23 10:22:22;;;;;;;20.10;17.67;;;;;;;30.13;60.62;100291.84;5561857;32;33740;-61
2023/06/23 10:25:26;;;;;;;20.50;17.05;;;;;;;30.17;60.46;100294.56;5560213;32;33714;-61
2023/06/23 10:28:30;;;;;;;24.85;17.33;;;;;;;30.25;60.37;100284.97;5560723;32;33407;-61
2023/06/23 10:31:35;;;;;;;29.92;17.42;;;;;;;30.24;59.32;100282.66;5560629;32;34850;-61
2023/06/23 10:34:41;;;;;;;20.23;16.42;;;;;;;30.28;59.48;100281.37;5561433;32;33059;-61
2023/06/23 10:37:48;;;;;;;20.75;16.92;;;;;;;30.39;60.53;100289.50;5564067;32;33364;-62
2023/06/23 10:40:51;;;;;;;22.08;17.00;;;;;;;30.47;61.27;100287.44;5566472;32;33814;-61
2023/06/23 10:43:56;;;;;;;22.42;18.48;;;;;;;30.46;60.72;100285.84;5566744;32;33713;-61
2023/06/23 10:46:59;;;;;;;20.88;18.15;;;;;;;30.48;61.97;100277.94;5565692;32;34225;-61
2023/06/23 10:50:02;;;;;;;22.98;17.90;;;;;;;30.60;62.63;100280.91;5565884;32;33755;-61
2023/06/23 10:53:14;;;;;;;24.48;18.50;;;;;;;30.58;63.29;100276.97;5564652;32;33613;-61
2023/06/23 10:56:36;;;;;;;22.80;18.52;;;;;;;30.52;63.22;100275.88;5569037;32;33815;-61
2023/06/23 10:59:43;;;;;;;22.08;18.55;;;;;;;30.57;63.06;100269.91;5566893;32;33629;-61
2023/06/23 11:02:52;;;;;;;21.15;19.00;;;;;;;30.65;62.22;100261.03;5564364;32;33593;-61
2023/06/23 11:05:57;;;;;;;19.90;17.85;;;;;;;30.62;62.50;100261.88;5568233;32;34192;-61
2023/06/23 11:09:01;;;;;;;22.77;18.85;;;;;;;30.66;61.13;100261.81;5559651;32;34336;-61
2023/06/23 11:12:38;;;;;;;22.85;18.30;;;;;;;30.74;59.22;100254.19;5564840;32;33239;-61
2023/06/23 11:15:50;;;;;;;22.15;18.37;;;;;;;30.73;60.84;100255.38;5558815;32;33439;-61
2023/06/23 11:18:55;;;;;;;21.67;18.87;;;;;;;30.79;59.89;100251.75;5560944;32;34521;-62
2023/06/23 11:22:09;;;;;;;28.08;18.55;;;;;;;30.83;61.08;100244.19;5564148;32;33653;-61
2023/06/23 11:25:22;;;;;;;24.12;19.58;;;;;;;30.85;60.98;100244.53;5567812;32;33296;-61
2023/06/23 11:28:35;;;;;;;23.30;18.48;;;;;;;30.80;61.34;100249.78;5568602;32;33613;-61
2023/06/23 11:32:12;;;;;;;20.75;18.45;;;;;;;30.84;60.90;100228.34;5567996;32;34361;-61
2023/06/23 11:35:14;;;;;;;22.62;18.87;;;;;;;30.73;61.68;100239.59;5564382;32;33847;-61
2023/06/23 11:38:19;;;;;;;20.88;18.73;;;;;;;30.65;62.52;100240.91;5562692;31;34249;-61
2023/06/23 11:41:26;;;;;;;23.38;17.83;;;;;;;30.62;62.08;100239.75;5559339;32;34341;-62
2023/06/23 11:44:29;;;;;;;20.10;18.05;;;;;;;30.86;61.14;100232.28;5558778;32;34011;-62
2023/06/23 11:47:31;;;;;;;24.77;17.35;;;;;;;30.90;60.43;100212.84;5565661;32;33002;-61
2023/06/23 11:50:36;;;;;;;27.65;16.85;;;;;;;30.88;61.48;100221.53;5565371;32;34279;-61
2023/06/23 11:53:41;;;;;;;18.42;16.37;;;;;;;30.94;59.75;100215.53;5567870;32;34416;-61
2023/06/23 11:56:45;;;;;;;20.35;17.17;;;;;;;30.99;59.74;100218.56;5567327;32;34408;-61
2023/06/23 11:59:48;;;;;;;21.23;16.65;;;;;;;31.14;61.15;100208.03;5563540;32;33614;-61
2023/06/23 12:02:51;;;;;;;19.87;15.20;;;;;;;31.25;59.40;100224.41;5563504;32;33646;-61
2023/06/23 12:05:55;;;;;;;21.23;15.55;;;;;;;31.43;56.68;100218.56;5565548;32;34425;-61
2023/06/23 12:08:57;;;;;;;24.05;17.05;;;;;;;31.35;55.06;100213.16;5566664;32;33406;-61
2023/06/23 12:12:00;;;;;;;23.92;14.40;;;;;;;31.31;56.65;100208.88;5558810;32;33203;-61
2023/06/23 12:15:03;;;;;;;21.75;15.38;;;;;;;31.34;56.05;100206.06;5552336;32;33741;-61
2023/06/23 12:18:07;;;;;;;19.25;14.80;;;;;;;31.34;56.63;100203.28;5567134;32;33988;-62
2023/06/23 12:21:09;;;;;;;18.77;14.90;;;;;;;31.35;54.79;100196.53;5561668;32;33753;-62
2023/06/23 12:24:11;;;;;;;21.60;14.23;;;;;;;31.37;55.73;100193.34;5563353;32;34314;-62
2023/06/23 12:27:14;;;;;;;20.15;15.30;;;;;;;31.37;55.66;100187.03;5558746;32;34348;-61
2023/06/23 12:30:18;;;;;;;20.92;14.63;;;;;;;31.42;56.46;100181.75;5558043;32;33585;-60
2023/06/23 12:33:29;;;;;;;20.67;14.63;;;;;;;31.45;53.67;100178.12;5569077;32;33425;-60
2023/06/23 12:36:31;;;;;;;24.20;14.40;;;;;;;31.42;54.78;100175.44;5568364;32;34228;-60
2023/06/23 12:39:34;;;;;;;20.52;14.60;;;;;;;31.42;55.83;100176.22;5569649;32;33629;-60
2023/06/23 12:42:36;;;;;;;16.90;14.98;;;;;;;31.44;55.79;100171.03;5569626;32;33494;-60
2023/06/23 12:45:39;;;;;;;21.77;15.43;;;;;;;31.50;57.20;100172.09;5569581;32;34217;-60
2023/06/23 12:48:42;;;;;;;17.27;15.27;;;;;;;31.55;57.24;100174.34;5569485;32;33598;-60
2023/06/23 12:51:46;;;;;;;18.52;15.55;;;;;;;31.49;59.96;100167.78;5570347;32;34399;-60
2023/06/23 12:54:51;;;;;;;21.65;15.73;;;;;;;31.45;57.98;100166.28;5570283;32;33756;-60
2023/06/23 12:57:53;;;;;;;26.87;16.17;;;;;;;31.45;57.90;100169.06;5570216;32;33679;-59
2023/06/23 13:00:56;;;;;;;17.75;15.85;;;;;;;31.47;58.21;100167.41;5570138;32;33399;-60
2023/06/23 13:03:58;;;;;;;20.45;15.70;;;;;;;31.50;57.94;100160.25;5570039;32;33890;-59
2023/06/23 13:07:01;;;;;;;22.10;14.93;;;;;;;31.53;58.99;100162.16;5570110;32;33624;-60
2023/06/23 13:10:05;;;;;;;23.12;16.33;;;;;;;31.54;57.29;100155.41;5569884;32;33995;-59
2023/06/23 13:13:13;;;;;;;20.15;15.43;;;;;;;31.59;57.81;100166.00;5570157;32;33575;-59
2023/06/23 13:16:17;;;;;;;20.70;15.18;;;;;;;31.58;57.33;100161.63;5569453;32;33904;-59
2023/06/23 13:19:19;;;;;;;21.20;16.55;;;;;;;31.56;58.13;100164.84;5568458;32;33550;-59
2023/06/23 13:22:22;;;;;;;21.10;14.98;;;;;;;31.55;56.94;100156.97;5569497;32;33664;-59
2023/06/23 13:25:25;;;;;;;16.58;14.73;;;;;;;31.56;56.95;100169.63;5566791;32;33705;-59
2023/06/23 13:28:27;;;;;;;19.85;14.60;;;;;;;31.54;56.13;100161.72;5566276;32;34337;-60
2023/06/23 13:31:29;;;;;;;22.73;16.50;;;;;;;31.50;58.42;100158.25;5567423;32;33650;-60
2023/06/23 13:34:32;;;;;;;21.73;15.15;;;;;;;31.45;57.63;100158.75;5565496;32;33700;-60
2023/06/23 13:37:37;;;;;;;20.02;15.20;;;;;;;31.48;58.29;100170.97;5569255;32;33657;-60
2023/06/23 13:40:39;;;;;;;22.90;16.12;;;;;;;31.56;57.86;100166.84;5569331;32;33729;-60
2023/06/23 13:43:41;;;;;;;21.33;15.48;;;;;;;31.54;58.61;100164.50;5567765;32;33639;-59
2023/06/23 13:46:44;;;;;;;20.35;15.63;;;;;;;31.53;59.16;100173.25;5567186;32;34298;-60
2023/06/23 13:49:46;;;;;;;16.85;15.02;;;;;;;31.55;58.85;100165.28;5569449;32;34388;-60
2023/06/23 13:52:48;;;;;;;19.35;15.05;;;;;;;31.58;58.29;100181.81;5568577;32;34470;-60
2023/06/23 13:55:51;;;;;;;26.90;15.27;;;;;;;31.62;56.92;100181.72;5549485;32;33652;-60
2023/06/23 13:58:53;;;;;;;18.08;13.00;;;;;;;31.61;57.39;100180.19;5560816;32;33711;-59
2023/06/23 14:01:55;;;;;;;22.15;13.35;;;;;;;31.55;56.61;100182.66;5569260;32;33588;-59
2023/06/23 14:04:58;;;;;;;19.70;13.30;;;;;;;31.44;57.22;100193.22;5569423;32;33596;-61
2023/06/23 14:08:00;;;;;;;16.70;12.35;;;;;;;31.40;57.43;100191.72;5569192;32;33767;-60
2023/06/23 14:11:03;;;;;;;18.92;11.77;;;;;;;31.38;56.15;100194.13;5568141;32;33592;-60
2023/06/23 14:14:05;;;;;;;18.40;10.48;;;;;;;31.35;56.55;100193.78;5568621;32;33685;-60
2023/06/23 14:17:07;;;;;;;19.02;10.30;;;;;;;31.36;56.32;100183.50;5568490;32;33749;-60
2023/06/23 14:20:10;;;;;;;17.12;9.32;;;;;;;31.25;55.58;100189.19;5569182;32;34479;-60
2023/06/23 14:23:15;;;;;;;17.02;9.07;;;;;;;31.16;55.66;100182.66;5567225;32;33962;-59
2023/06/23 14:26:17;;;;;;;15.25;9.07;;;;;;;31.14;56.38;100183.09;5568500;32;34436;-60
2023/06/23 14:29:20;;;;;;;13.38;9.25;;;;;;;31.09;55.25;100189.13;5567417;32;33570;-60
2023/06/23 14:32:22;;;;;;;13.88;8.85;;;;;;;31.07;55.89;100195.09;5568846;32;33733;-60
2023/06/23 14:35:25;;;;;;;22.90;9.40;;;;;;;31.12;55.97;100194.59;5568351;32;33656;-60
2023/06/23 14:38:27;;;;;;;14.95;8.70;;;;;;;31.18;55.30;100185.81;5566611;32;33800;-60
